BRO weather

Brownsville South Padre Island International Airport
Brownsville, Texas, United States

Public forecast

Using degrees Fahrenheit for public forecast. Weather courtesy of forecast.io.

METAR (pilot weather report)

Retrieved 2019/05/26 10:44 UTC (0 seconds ago):

KBRO 261044Z 14008KT 10SM FEW018 SCT030 OVC040 27/25 A2996 RMK AO2 T02720250 $

TAF (pilot weather forecast)

Retrieved 2019/05/26 06:40 UTC (4 hours ago):

TAF KBRO 260537Z 2606/2706 14010KT P6SM FEW017 BKN025 FM261400 14016G22KT P6SM BKN025 TEMPO 2614/2617 SCT025 FM261700 14018G25KT P6SM SCT035 FM262200 13016G22KT P6SM SKC FM270300 14011KT P6SM FEW022